createdAt,value
2023-05-24T00:01:29.288Z,7.74
2023-05-24T00:04:00.994Z,7.71
2023-05-24T00:06:35.001Z,7.69
2023-05-24T00:09:06.187Z,7.65
2023-05-24T00:11:36.915Z,7.63
2023-05-24T00:14:08.017Z,7.62
2023-05-24T00:16:38.694Z,7.63
2023-05-24T00:19:11.391Z,7.65
2023-05-24T00:21:42.782Z,7.67
2023-05-24T00:24:13.506Z,7.67
2023-05-24T00:26:44.172Z,7.70
2023-05-24T00:29:15.248Z,7.68
2023-05-24T00:31:46.394Z,7.68
2023-05-24T00:34:17.793Z,7.68
2023-05-24T00:36:48.308Z,7.68
2023-05-24T00:39:19.232Z,7.67
2023-05-24T00:41:49.812Z,7.67
2023-05-24T00:44:21.030Z,7.67
2023-05-24T00:46:52.345Z,7.63
2023-05-24T00:49:24.199Z,7.63
2023-05-24T00:51:56.322Z,7.62
2023-05-24T00:54:27.360Z,7.62
2023-05-24T00:56:58.661Z,7.61
2023-05-24T00:59:30.031Z,7.59
2023-05-24T01:02:00.691Z,7.59
2023-05-24T01:04:32.655Z,7.56
2023-05-24T01:07:14.982Z,7.52
2023-05-24T01:09:56.725Z,7.50
2023-05-24T01:12:37.019Z,7.48
2023-05-24T01:15:17.665Z,7.46
2023-05-24T01:18:01.760Z,7.46
2023-05-24T01:20:38.429Z,7.45
2023-05-24T01:23:20.111Z,7.45
2023-05-24T01:26:04.520Z,7.45
2023-05-24T01:28:36.408Z,7.46
2023-05-24T01:31:08.461Z,7.49
2023-05-24T01:33:44.373Z,7.54
2023-05-24T01:36:14.976Z,7.58
2023-05-24T01:38:46.870Z,7.64
2023-05-24T01:41:29.458Z,7.70
2023-05-24T01:44:06.571Z,7.78
2023-05-24T01:46:39.833Z,7.84
2023-05-24T01:49:19.467Z,7.89
2023-05-24T01:51:55.378Z,7.96
2023-05-24T01:54:29.492Z,8.00
2023-05-24T01:57:01.110Z,8.03
2023-05-24T01:59:33.076Z,8.03
2023-05-24T02:02:04.193Z,8.04
2023-05-24T02:04:35.651Z,8.06
2023-05-24T02:07:06.703Z,8.09
2023-05-24T02:09:37.592Z,8.11
2023-05-24T02:12:10.543Z,8.12
2023-05-24T02:14:42.799Z,8.14
2023-05-24T02:17:13.551Z,8.13
2023-05-24T02:19:44.265Z,8.12
2023-05-24T02:22:15.511Z,8.12
2023-05-24T02:24:48.445Z,8.10
2023-05-24T02:27:19.271Z,8.10
2023-05-24T02:29:50.213Z,8.10
2023-05-24T02:32:21.265Z,8.10
2023-05-24T02:34:51.831Z,8.10
2023-05-24T02:37:23.272Z,8.09
2023-05-24T02:39:53.908Z,8.07
2023-05-24T02:42:24.533Z,8.05
2023-05-24T02:44:54.981Z,8.01
2023-05-24T02:47:26.783Z,7.98
2023-05-24T02:49:57.614Z,7.93
2023-05-24T02:52:28.208Z,7.91
2023-05-24T02:54:59.511Z,7.86
2023-05-24T02:57:34.053Z,7.81
2023-05-24T03:00:06.067Z,7.77
2023-05-24T03:02:38.558Z,7.74
2023-05-24T03:05:10.963Z,7.70
2023-05-24T03:07:42.444Z,7.66
2023-05-24T03:10:15.768Z,7.63
2023-05-24T03:12:46.940Z,7.60
2023-05-24T03:15:17.948Z,7.57
2023-05-24T03:17:48.542Z,7.52
2023-05-24T03:20:21.093Z,7.49
2023-05-24T03:22:52.427Z,7.46
2023-05-24T03:25:23.224Z,7.45
2023-05-24T03:27:54.708Z,7.43
2023-05-24T03:30:25.969Z,7.41
2023-05-24T03:32:56.882Z,7.38
2023-05-24T03:35:27.979Z,7.36
2023-05-24T03:37:58.614Z,7.35
2023-05-24T03:40:32.435Z,7.35
2023-05-24T03:43:04.579Z,7.33
2023-05-24T03:45:39.786Z,7.33
2023-05-24T03:48:11.480Z,7.30
2023-05-24T03:50:42.600Z,7.36
2023-05-24T03:53:13.554Z,7.36
2023-05-24T03:55:44.785Z,7.37
2023-05-24T03:58:16.573Z,7.37
2023-05-24T04:00:47.273Z,7.38
2023-05-24T04:03:20.122Z,7.40
2023-05-24T04:05:50.945Z,7.43
2023-05-24T04:08:21.598Z,7.46
2023-05-24T04:10:52.573Z,7.50
2023-05-24T04:13:23.487Z,7.54
2023-05-24T04:15:54.433Z,7.58
2023-05-24T04:18:25.492Z,7.63
2023-05-24T04:20:56.775Z,7.68
2023-05-24T04:23:27.236Z,7.75
2023-05-24T04:25:58.230Z,7.81
2023-05-24T04:28:29.124Z,7.88
2023-05-24T04:31:00.355Z,7.93
2023-05-24T04:33:31.197Z,7.98
2023-05-24T04:36:02.288Z,8.02
2023-05-24T04:38:34.597Z,8.06
2023-05-24T04:41:06.646Z,8.10
2023-05-24T04:43:37.621Z,8.15
2023-05-24T04:46:09.454Z,8.19
2023-05-24T04:48:41.052Z,8.25
2023-05-24T04:51:11.962Z,8.30
2023-05-24T04:53:44.264Z,8.35
2023-05-24T04:56:16.918Z,8.39
2023-05-24T04:58:48.258Z,8.43
2023-05-24T05:01:19.441Z,8.45
2023-05-24T05:03:50.751Z,8.48
2023-05-24T05:06:22.119Z,8.52
2023-05-24T05:08:52.996Z,8.55
2023-05-24T05:11:24.170Z,8.62
2023-05-24T05:13:55.001Z,8.71
2023-05-24T05:16:26.064Z,8.79
2023-05-24T05:18:56.932Z,8.87
2023-05-24T05:21:27.416Z,8.94
2023-05-24T05:23:57.960Z,8.99
2023-05-24T05:26:29.186Z,9.05
2023-05-24T05:28:59.915Z,9.09
2023-05-24T05:31:31.029Z,9.12
2023-05-24T05:34:02.091Z,9.15
2023-05-24T05:36:32.940Z,9.18
2023-05-24T05:39:03.871Z,9.22
2023-05-24T05:41:37.048Z,9.26
2023-05-24T05:44:08.128Z,9.31
2023-05-24T05:46:39.255Z,9.36
2023-05-24T05:49:10.699Z,9.42
2023-05-24T05:51:41.369Z,9.47
2023-05-24T05:54:16.318Z,9.55
2023-05-24T05:56:48.127Z,9.64
2023-05-24T05:59:19.578Z,9.73
2023-05-24T06:01:50.660Z,9.83
2023-05-24T06:04:21.879Z,9.94
2023-05-24T06:06:53.166Z,10.05
2023-05-24T06:09:23.654Z,10.17
2023-05-24T06:11:54.588Z,10.29
2023-05-24T06:14:26.066Z,10.39
2023-05-24T06:16:58.022Z,10.48
2023-05-24T06:19:31.098Z,10.60
2023-05-24T06:22:02.246Z,10.70
2023-05-24T06:24:34.889Z,10.78
2023-05-24T06:27:06.231Z,10.87
2023-05-24T06:29:37.277Z,10.96
2023-05-24T06:32:08.739Z,11.06
2023-05-24T06:34:39.636Z,11.13
2023-05-24T06:37:10.545Z,11.22
2023-05-24T06:39:41.511Z,11.29
2023-05-24T06:42:12.123Z,11.36
2023-05-24T06:44:42.785Z,11.42
2023-05-24T06:47:13.782Z,11.50
2023-05-24T06:49:44.964Z,11.59
2023-05-24T06:52:16.190Z,11.69
2023-05-24T06:54:46.761Z,11.77
2023-05-24T06:57:17.763Z,11.87
2023-05-24T06:59:48.694Z,11.93
2023-05-24T07:02:24.116Z,11.95
2023-05-24T07:04:55.430Z,11.93
2023-05-24T07:07:26.810Z,11.90
2023-05-24T07:09:57.874Z,11.92
2023-05-24T07:12:29.122Z,11.91
2023-05-24T07:15:00.115Z,11.92
2023-05-24T07:17:31.370Z,11.93
2023-05-24T07:20:02.528Z,11.94
2023-05-24T07:22:33.603Z,11.94
2023-05-24T07:25:04.741Z,11.95
2023-05-24T07:27:36.165Z,11.98
2023-05-24T07:30:19.798Z,12.01
2023-05-24T07:32:59.271Z,12.05
2023-05-24T07:35:31.272Z,12.08
2023-05-24T07:38:02.826Z,12.06
2023-05-24T07:40:33.859Z,12.06
2023-05-24T07:43:04.558Z,12.09
2023-05-24T07:45:35.814Z,12.13
2023-05-24T07:48:06.837Z,12.17
2023-05-24T07:50:38.553Z,12.27
2023-05-24T07:53:09.645Z,12.40
2023-05-24T07:55:40.395Z,12.53
2023-05-24T07:58:11.942Z,12.67
2023-05-24T08:00:43.174Z,12.77
2023-05-24T08:03:15.847Z,12.81
2023-05-24T08:05:47.052Z,12.82
2023-05-24T08:08:18.681Z,12.82
2023-05-24T08:10:49.253Z,12.80
2023-05-24T08:13:21.527Z,12.81
2023-05-24T08:15:52.873Z,12.82
2023-05-24T08:18:23.891Z,12.85
2023-05-24T08:20:54.674Z,12.86
2023-05-24T08:23:26.215Z,12.85
2023-05-24T08:25:58.142Z,12.84
2023-05-24T08:28:29.896Z,12.81
2023-05-24T08:31:01.575Z,12.74
2023-05-24T08:33:32.726Z,12.64
2023-05-24T08:36:03.673Z,12.58
2023-05-24T08:38:34.312Z,12.53
2023-05-24T08:41:06.996Z,12.53
2023-05-24T08:43:38.482Z,12.55
2023-05-24T08:46:10.352Z,12.62
2023-05-24T08:48:48.284Z,12.71
2023-05-24T08:51:19.505Z,12.80
2023-05-24T08:53:51.914Z,12.87
2023-05-24T08:56:23.358Z,12.91
2023-05-24T08:58:55.067Z,12.96
2023-05-24T09:01:28.974Z,12.96
2023-05-24T09:04:04.288Z,12.91
2023-05-24T09:06:37.112Z,12.82
2023-05-24T09:09:11.356Z,12.70
2023-05-24T09:11:44.573Z,12.58
2023-05-24T09:14:16.652Z,12.48
2023-05-24T09:16:47.864Z,12.39
2023-05-24T09:19:20.790Z,12.31
2023-05-24T09:21:53.283Z,12.25
2023-05-24T09:24:26.019Z,12.22
2023-05-24T09:26:57.581Z,12.22
2023-05-24T09:29:28.622Z,12.24
2023-05-24T09:32:00.144Z,12.31
2023-05-24T09:34:30.894Z,12.38
2023-05-24T09:37:03.132Z,12.47
2023-05-24T09:39:34.086Z,12.54
2023-05-24T09:42:06.264Z,12.61
2023-05-24T09:44:37.334Z,12.69
2023-05-24T09:47:09.390Z,12.76
2023-05-24T09:49:41.621Z,12.87
2023-05-24T09:52:16.916Z,12.96
2023-05-24T09:54:48.551Z,13.07
2023-05-24T09:57:22.365Z,13.18
2023-05-24T09:59:53.243Z,13.24
2023-05-24T10:02:27.575Z,13.29
2023-05-24T10:05:01.888Z,13.33
2023-05-24T10:07:34.645Z,13.36
2023-05-24T10:10:07.613Z,13.39
2023-05-24T10:12:42.960Z,13.45
2023-05-24T10:15:14.755Z,13.55
2023-05-24T10:17:45.722Z,13.62
2023-05-24T10:20:17.737Z,13.69
2023-05-24T10:22:50.785Z,13.74
2023-05-24T10:25:25.739Z,13.77
2023-05-24T10:27:59.715Z,13.81
2023-05-24T10:30:35.854Z,13.84
2023-05-24T10:33:10.181Z,13.84
2023-05-24T10:35:43.243Z,13.85
2023-05-24T10:38:14.141Z,13.86
2023-05-24T10:40:46.033Z,13.86
2023-05-24T10:43:17.699Z,13.79
2023-05-24T10:45:51.321Z,13.78
2023-05-24T10:48:41.086Z,13.83
2023-05-24T10:51:34.843Z,13.87
2023-05-24T10:54:21.622Z,13.88
2023-05-24T10:56:53.494Z,13.86
2023-05-24T10:59:34.945Z,13.81
2023-05-24T11:02:09.901Z,13.74
2023-05-24T11:04:44.127Z,13.69
2023-05-24T11:07:17.255Z,13.63
2023-05-24T11:09:56.071Z,13.62
2023-05-24T11:12:38.576Z,13.66
2023-05-24T11:15:12.351Z,13.73
2023-05-24T11:18:10.110Z,13.79
2023-05-24T11:20:42.898Z,13.86
2023-05-24T11:23:17.170Z,13.92
2023-05-24T11:25:49.204Z,14.00
2023-05-24T11:28:22.207Z,14.07
2023-05-24T11:30:52.736Z,14.09
2023-05-24T11:33:24.376Z,14.08
2023-05-24T11:35:56.329Z,14.05
2023-05-24T11:38:28.097Z,14.00
2023-05-24T11:41:00.847Z,13.93
2023-05-24T11:43:33.133Z,13.82
2023-05-24T11:46:04.028Z,13.73
2023-05-24T11:48:35.007Z,13.65
2023-05-24T11:51:07.554Z,13.60
2023-05-24T11:53:38.479Z,13.59
2023-05-24T11:56:09.326Z,13.61
2023-05-24T11:58:48.891Z,13.65
2023-05-24T12:01:29.716Z,13.72
2023-05-24T12:04:00.674Z,13.82
2023-05-24T12:06:41.784Z,13.95
2023-05-24T12:09:14.597Z,14.07
2023-05-24T12:11:48.456Z,14.15
2023-05-24T12:14:20.291Z,14.19
2023-05-24T12:16:51.049Z,14.18
2023-05-24T12:22:00.417Z,14.08
2023-05-24T12:24:32.608Z,14.05
2023-05-24T12:27:06.768Z,14.05
2023-05-24T12:29:40.795Z,14.09
2023-05-24T12:32:14.306Z,14.16
2023-05-24T12:34:46.578Z,14.22
2023-05-24T12:37:18.628Z,14.31
2023-05-24T12:39:49.970Z,14.45
2023-05-24T12:42:23.971Z,14.58
2023-05-24T12:44:55.102Z,14.65
2023-05-24T12:47:26.015Z,14.73
2023-05-24T12:49:57.372Z,14.81
2023-05-24T12:52:27.864Z,14.89
2023-05-24T12:54:58.953Z,14.96
2023-05-24T12:57:31.527Z,14.97
2023-05-24T13:00:05.853Z,14.95
2023-05-24T13:02:38.112Z,14.93
2023-05-24T13:05:11.874Z,14.91
2023-05-24T13:07:43.732Z,14.90
2023-05-24T13:10:15.125Z,14.89
2023-05-24T13:12:46.126Z,14.92
2023-05-24T13:15:17.080Z,14.99
2023-05-24T13:17:48.184Z,15.10
2023-05-24T13:20:22.362Z,15.22
2023-05-24T13:22:54.064Z,15.34
2023-05-24T13:25:24.887Z,15.48
2023-05-24T13:27:55.572Z,15.63
2023-05-24T13:30:28.368Z,15.77
2023-05-24T13:32:59.724Z,15.94
2023-05-24T13:35:32.738Z,16.13
2023-05-24T13:38:03.332Z,16.28
2023-05-24T13:40:34.263Z,16.37
2023-05-24T13:43:05.027Z,16.45
2023-05-24T13:45:36.440Z,16.50
2023-05-24T13:48:07.200Z,16.59
2023-05-24T13:50:38.673Z,16.68
2023-05-24T13:53:09.549Z,16.77
2023-05-24T13:55:40.842Z,16.84
2023-05-24T13:58:12.024Z,16.87
2023-05-24T14:00:43.289Z,16.90
2023-05-24T14:03:15.983Z,16.94
2023-05-24T14:05:47.617Z,16.92
2023-05-24T14:08:18.323Z,16.92
2023-05-24T14:10:50.037Z,16.96
2023-05-24T14:13:55.691Z,17.03
2023-05-24T14:16:13.021Z,17.11
2023-05-24T14:18:45.849Z,17.16
2023-05-24T14:21:16.886Z,17.20
2023-05-24T14:23:47.618Z,17.26
2023-05-24T14:26:19.667Z,17.27
2023-05-24T14:28:52.304Z,17.21
2023-05-24T14:31:24.811Z,17.16
2023-05-24T14:33:55.589Z,17.12
2023-05-24T14:36:26.561Z,17.07
2023-05-24T14:38:57.952Z,17.03
2023-05-24T14:41:28.844Z,17.01
2023-05-24T14:43:59.567Z,17.00
2023-05-24T14:46:30.317Z,17.01
2023-05-24T14:49:02.430Z,17.03
2023-05-24T14:51:33.087Z,17.07
2023-05-24T14:54:03.632Z,17.12
2023-05-24T14:56:34.483Z,17.12
2023-05-24T14:59:05.051Z,17.14
2023-05-24T15:01:38.635Z,17.16
2023-05-24T15:04:09.289Z,17.14
2023-05-24T15:06:40.134Z,17.07
2023-05-24T15:09:11.730Z,16.94
2023-05-24T15:11:42.310Z,16.80
2023-05-24T15:14:16.120Z,16.66
2023-05-24T15:16:46.840Z,16.54
2023-05-24T15:19:17.975Z,16.41
2023-05-24T15:21:48.963Z,16.30
2023-05-24T15:24:19.688Z,16.21
2023-05-24T15:26:51.060Z,16.15
2023-05-24T15:29:21.819Z,16.08
2023-05-24T15:31:54.293Z,16.01
2023-05-24T15:34:25.299Z,15.93
2023-05-24T15:36:55.886Z,15.83
2023-05-24T15:39:27.000Z,15.77
2023-05-24T15:41:57.965Z,15.75
2023-05-24T15:44:28.762Z,15.76
2023-05-24T15:46:59.702Z,15.78
2023-05-24T15:49:31.399Z,15.81
2023-05-24T15:52:04.621Z,15.83
2023-05-24T15:54:35.630Z,15.81
2023-05-24T15:57:07.679Z,15.79
2023-05-24T15:59:38.763Z,15.77
2023-05-24T16:02:10.839Z,15.76
2023-05-24T16:04:41.398Z,15.75
2023-05-24T16:07:12.120Z,15.77
2023-05-24T16:09:42.731Z,15.80
2023-05-24T16:12:13.671Z,15.84
2023-05-24T16:14:45.153Z,15.88
2023-05-24T16:17:16.025Z,15.94
2023-05-24T16:19:49.400Z,16.01
2023-05-24T16:22:22.117Z,16.08
2023-05-24T17:07:03.251Z,17.13
2023-05-24T17:09:34.286Z,17.23
2023-05-24T17:12:05.109Z,17.93
2023-05-24T17:14:35.757Z,18.87
2023-05-24T17:17:07.931Z,19.71
2023-05-24T17:19:39.575Z,20.35
2023-05-24T17:22:12.247Z,20.87
2023-05-24T17:24:43.741Z,21.29
2023-05-24T17:27:14.268Z,21.63
2023-05-24T17:29:45.557Z,21.80
2023-05-24T17:32:16.656Z,21.56
2023-05-24T17:34:47.366Z,21.06
2023-05-24T17:37:18.351Z,20.71
2023-05-24T17:39:52.533Z,20.59
2023-05-24T17:42:24.796Z,20.66
2023-05-24T17:44:55.936Z,20.21
2023-05-24T17:47:26.614Z,19.50
2023-05-24T17:49:57.487Z,18.88
2023-05-24T17:52:29.602Z,18.34
2023-05-24T17:55:00.205Z,17.89
2023-05-24T17:57:30.905Z,17.48
2023-05-24T18:00:01.979Z,17.12
2023-05-24T18:02:32.486Z,16.79
2023-05-24T18:05:03.141Z,16.48
2023-05-24T18:07:33.828Z,16.17
2023-05-24T18:10:04.709Z,15.94
2023-05-24T18:12:35.533Z,15.73
2023-05-24T18:15:07.623Z,15.56
2023-05-24T18:17:38.272Z,15.45
2023-05-24T18:20:12.261Z,15.39
2023-05-24T18:22:44.226Z,15.28
2023-05-24T18:25:16.000Z,15.18
2023-05-24T18:27:47.200Z,15.08
2023-05-24T18:30:18.533Z,14.92
2023-05-24T18:33:04.519Z,14.84
2023-05-24T18:35:36.471Z,14.76
2023-05-24T18:38:07.545Z,14.70
2023-05-24T18:40:38.153Z,14.70
2023-05-24T18:43:08.926Z,14.63
2023-05-24T18:45:39.873Z,14.51
2023-05-24T18:48:10.904Z,14.44
2023-05-24T18:50:41.716Z,14.41
2023-05-24T18:53:13.066Z,14.38
2023-05-24T18:55:44.200Z,14.32
2023-05-24T18:58:15.567Z,14.25
2023-05-24T19:00:46.201Z,14.20
2023-05-24T19:03:16.907Z,14.15
2023-05-24T19:05:48.089Z,14.14
2023-05-24T19:08:19.065Z,14.11
2023-05-24T19:10:50.039Z,14.08
2023-05-24T19:13:21.089Z,14.06
2023-05-24T19:15:53.679Z,14.02
2023-05-24T19:18:24.905Z,13.96
2023-05-24T19:20:56.145Z,13.89
2023-05-24T19:23:26.788Z,13.84
2023-05-24T19:25:57.393Z,13.77
2023-05-24T19:28:28.295Z,13.71
2023-05-24T19:31:01.311Z,13.65
2023-05-24T19:33:32.249Z,13.59
2023-05-24T19:36:03.357Z,13.54
2023-05-24T19:38:33.892Z,13.51
2023-05-24T19:41:04.641Z,13.47
2023-05-24T19:43:35.194Z,13.42
2023-05-24T19:46:07.302Z,13.38
2023-05-24T19:48:38.155Z,13.34
2023-05-24T19:51:08.819Z,13.26
2023-05-24T19:53:39.496Z,13.20
2023-05-24T19:56:10.159Z,13.16
2023-05-24T19:58:41.186Z,13.09
2023-05-24T20:01:21.233Z,13.04
2023-05-24T20:03:52.350Z,13.00
2023-05-24T20:06:23.096Z,12.96
2023-05-24T20:08:55.685Z,12.93
2023-05-24T20:11:26.825Z,12.92
2023-05-24T20:13:58.991Z,12.91
2023-05-24T20:16:30.229Z,12.89
2023-05-24T20:19:01.204Z,12.87
2023-05-24T20:21:32.849Z,12.82
2023-05-24T20:24:03.825Z,12.77
2023-05-24T20:26:35.170Z,12.73
2023-05-24T20:29:05.910Z,12.67
2023-05-24T20:31:37.788Z,12.61
2023-05-24T20:34:09.253Z,12.58
2023-05-24T20:36:42.090Z,12.56
2023-05-24T20:39:14.651Z,12.51
2023-05-24T20:41:45.655Z,12.48
2023-05-24T20:44:16.604Z,12.43
2023-05-24T20:46:47.521Z,12.39
2023-05-24T20:49:18.249Z,12.36
2023-05-24T20:51:48.940Z,12.33
2023-05-24T20:54:19.879Z,12.32
2023-05-24T20:56:50.686Z,12.29
2023-05-24T20:59:21.576Z,12.26
2023-05-24T21:01:52.481Z,12.24
2023-05-24T21:04:23.188Z,12.21
2023-05-24T21:06:55.086Z,12.21
2023-05-24T21:09:26.047Z,12.21
2023-05-24T21:11:56.656Z,12.19
2023-05-24T21:14:27.730Z,12.19
2023-05-24T21:16:58.589Z,12.18
2023-05-24T21:19:29.222Z,12.18
2023-05-24T21:22:00.218Z,12.19
2023-05-24T21:24:31.148Z,12.23
2023-05-24T21:27:02.097Z,12.28
2023-05-24T21:29:33.458Z,12.30
2023-05-24T21:32:04.076Z,12.31
2023-05-24T21:34:35.741Z,12.31
2023-05-24T21:37:07.146Z,12.33
2023-05-24T21:39:37.744Z,12.33
2023-05-24T21:42:08.693Z,12.36
2023-05-24T21:44:39.942Z,12.36
2023-05-24T21:47:11.005Z,12.36
2023-05-24T21:49:41.556Z,12.35
2023-05-24T21:52:12.304Z,12.34
2023-05-24T21:54:42.941Z,12.31
2023-05-24T21:57:13.796Z,12.30
2023-05-24T21:59:44.525Z,12.27
2023-05-24T22:02:15.301Z,12.24
2023-05-24T22:04:45.990Z,12.20
2023-05-24T22:07:16.650Z,12.14
2023-05-24T22:09:48.373Z,12.06
2023-05-24T22:12:19.486Z,11.98
2023-05-24T22:14:50.948Z,11.90
2023-05-24T22:17:22.123Z,11.84
2023-05-24T22:19:53.390Z,11.76
2023-05-24T22:22:23.983Z,11.70
2023-05-24T22:24:55.438Z,11.63
2023-05-24T22:27:26.003Z,11.55
2023-05-24T22:29:57.248Z,11.45
2023-05-24T22:32:28.552Z,11.34
2023-05-24T22:34:59.591Z,11.21
2023-05-24T22:37:30.479Z,11.09
2023-05-24T22:40:02.044Z,11.00
2023-05-24T22:42:32.996Z,10.92
2023-05-24T22:45:04.057Z,10.87
2023-05-24T22:47:34.752Z,10.82
2023-05-24T22:50:05.880Z,10.79
2023-05-24T22:52:36.507Z,10.75
2023-05-24T22:55:08.662Z,10.72
2023-05-24T22:57:39.289Z,10.68
2023-05-24T23:00:12.245Z,10.63
2023-05-24T23:02:43.234Z,10.58
2023-05-24T23:05:13.834Z,10.53
2023-05-24T23:07:45.977Z,10.48
2023-05-24T23:10:16.591Z,10.43
2023-05-24T23:12:47.742Z,10.39
2023-05-24T23:15:18.939Z,10.33
2023-05-24T23:17:52.434Z,10.26
2023-05-24T23:20:23.546Z,10.20
2023-05-24T23:22:54.532Z,10.16
2023-05-24T23:25:25.180Z,10.11
2023-05-24T23:27:55.926Z,10.08
2023-05-24T23:30:26.546Z,10.04
2023-05-24T23:32:57.936Z,10.00
2023-05-24T23:35:29.254Z,9.96
2023-05-24T23:38:00.343Z,9.93
2023-05-24T23:40:30.894Z,9.89
2023-05-24T23:43:01.595Z,9.87
2023-05-24T23:45:32.539Z,9.83
2023-05-24T23:48:03.609Z,9.79
2023-05-24T23:50:43.054Z,9.74
2023-05-24T23:53:24.381Z,9.72
2023-05-24T23:55:55.014Z,9.71
2023-05-24T23:58:26.297Z,9.69
